Terminal Aerodrome Forecast
Issued by NWS Duluth, MN

Home | Current Version | Previous Version | Text Only | Print | Product List | Glossary On
Versions: 1 2 3 4 5 6 7 8 9 10 11 12 13 14 15 16 17 18 19 20 21
000
FTUS43 KDLH 232300 RRA
TAFINL
TAF
KINL 232356Z 2400/2424 30005KT P6SM OVC008
     FM240300 30012KT 3SM -FZDZSN BR OVC008
     FM240800 33012G20KT 3SM -SN BLSN OVC012
     FM241400 34016G25KT 5SM -SN BLSN OVC020=

USA.gov is the U.S. government's official web portal to all federal, state and local government web resources and services.